Pagrindinis puslapis
METAR-TAF:

METAR-TAF

Oro uostai :

Muş, Turkija

platuma: 38-45N, ilguma: 041-40E, Aukštis: 1266 m

Dabartinis oras

Ataskaita buvo paskelbta 57 minutes, ne 10:50 UTC
Vėjas 2 kt nuo kintamojo kryptimis
Temperatūra 8°C
Drėgmė 87%
Slėgis 1021 hPa
Matomumas: 6000 m
Išsisklaidę debesys ne aukštis 3500 ft
Su prošvaistėmis ne aukštis 7000 ft

METAR: LTCK 281050Z VRB02KT 6000 SCT035 BKN070 08/06 Q1021

Laikas: 14:47 (11:47 UTC)

Prognozė

Ataskaita buvo paskelbta 1 valandą ir 7 minutes, ne 10:40 UTC
Prognozė galioja nuo 28 metu 12 UTC su 28 metu 21 UTC
Vėjas 2 kt nuo kintamojo kryptimis
Matomumas: 5000 m
Išsisklaidę debesys ne aukštis 3500 ft
Su prošvaistėmis ne aukštis 7000 ft
rūkana
Laikinai
nuo 28 metu 12 UTC su 28 metu 16 UTC
Išsisklaidę debesys ne aukštis 800 ft
Su prošvaistėmis ne aukštis 3000 ft
Su prošvaistėmis ne aukštis 7000 ft
lietus

TAF: LTCK 281040Z 2812/2821 VRB02KT 5000 BR SCT035 BKN070 TEMPO 2812/2816 -RA SCT008 BKN030 BKN070

Orai ataskaitas ir orų prognozės (METAR, TAF).

turimą stotys yra geltonos ir raudonos taškus žemėlapyje.

Perkelti pele per norėdami pamatyti stoties vardą.

Tada spustelėkite, norėdami matyti oro stebėjimo ir prognozės.

Norėdami pakeisti žemėlapį: spustelėkite ant žalios mygtukų su juodo kryžiaus žemyn,; žalią mygtuką su brūkšneliu, jei norite nutolinti; arba žalių rodyklių gretimoms žemėlapius.


METAR-TAF: